sensor_id;sensor_type;location;lat;lon;timestamp;P1;durP1;ratioP1;P2;durP2;ratioP2
577;SDS011;275;48.492;9.214;2023-04-19T00:01:19;14.57;;;13.38;;
577;SDS011;275;48.492;9.214;2023-04-19T00:03:47;15.95;;;14.55;;
577;SDS011;275;48.492;9.214;2023-04-19T00:06:14;14.25;;;13.05;;
577;SDS011;275;48.492;9.214;2023-04-19T00:08:41;16.17;;;14.82;;
577;SDS011;275;48.492;9.214;2023-04-19T00:11:08;14.98;;;13.68;;
577;SDS011;275;48.492;9.214;2023-04-19T00:13:35;16.30;;;14.90;;
577;SDS011;275;48.492;9.214;2023-04-19T00:16:04;15.07;;;13.88;;
577;SDS011;275;48.492;9.214;2023-04-19T00:18:31;16.30;;;14.80;;
577;SDS011;275;48.492;9.214;2023-04-19T00:20:58;15.23;;;14.02;;
577;SDS011;275;48.492;9.214;2023-04-19T00:23:26;16.10;;;14.77;;
577;SDS011;275;48.492;9.214;2023-04-19T00:25:53;16.52;;;15.23;;
577;SDS011;275;48.492;9.214;2023-04-19T00:28:20;15.05;;;13.75;;
577;SDS011;275;48.492;9.214;2023-04-19T00:30:47;15.65;;;14.07;;
577;SDS011;275;48.492;9.214;2023-04-19T00:33:15;17.60;;;15.75;;
577;SDS011;275;48.492;9.214;2023-04-19T00:35:42;16.50;;;15.10;;
577;SDS011;275;48.492;9.214;2023-04-19T00:38:09;16.98;;;15.57;;
577;SDS011;275;48.492;9.214;2023-04-19T00:40:36;16.20;;;14.90;;
577;SDS011;275;48.492;9.214;2023-04-19T00:43:03;17.88;;;16.52;;
577;SDS011;275;48.492;9.214;2023-04-19T00:45:30;17.02;;;15.70;;
577;SDS011;275;48.492;9.214;2023-04-19T00:48:00;17.08;;;15.77;;
577;SDS011;275;48.492;9.214;2023-04-19T00:50:28;17.58;;;16.08;;
577;SDS011;275;48.492;9.214;2023-04-19T00:52:55;17.33;;;15.90;;
577;SDS011;275;48.492;9.214;2023-04-19T00:55:23;18.42;;;17.02;;
577;SDS011;275;48.492;9.214;2023-04-19T00:57:50;18.02;;;16.42;;
577;SDS011;275;48.492;9.214;2023-04-19T01:00:17;15.95;;;14.75;;
577;SDS011;275;48.492;9.214;2023-04-19T01:02:44;18.23;;;16.73;;
577;SDS011;275;48.492;9.214;2023-04-19T01:05:11;17.98;;;16.35;;
577;SDS011;275;48.492;9.214;2023-04-19T01:07:39;17.60;;;16.10;;
577;SDS011;275;48.492;9.214;2023-04-19T01:10:07;18.95;;;17.35;;
577;SDS011;275;48.492;9.214;2023-04-19T01:12:34;17.77;;;16.25;;
577;SDS011;275;48.492;9.214;2023-04-19T01:15:01;18.90;;;17.30;;
577;SDS011;275;48.492;9.214;2023-04-19T01:17:27;18.08;;;16.48;;
577;SDS011;275;48.492;9.214;2023-04-19T01:19:59;19.40;;;17.73;;
577;SDS011;275;48.492;9.214;2023-04-19T01:22:28;19.33;;;17.50;;
577;SDS011;275;48.492;9.214;2023-04-19T01:24:56;18.35;;;16.85;;
577;SDS011;275;48.492;9.214;2023-04-19T01:27:23;17.85;;;16.35;;
577;SDS011;275;48.492;9.214;2023-04-19T01:29:50;19.00;;;17.42;;
577;SDS011;275;48.492;9.214;2023-04-19T01:32:17;19.50;;;17.85;;
577;SDS011;275;48.492;9.214;2023-04-19T01:34:44;18.27;;;16.77;;
577;SDS011;275;48.492;9.214;2023-04-19T01:37:11;17.77;;;16.27;;
577;SDS011;275;48.492;9.214;2023-04-19T01:39:39;18.88;;;17.23;;
577;SDS011;275;48.492;9.214;2023-04-19T01:42:05;19.73;;;18.02;;
577;SDS011;275;48.492;9.214;2023-04-19T01:44:32;17.75;;;16.15;;
577;SDS011;275;48.492;9.214;2023-04-19T01:46:59;19.35;;;17.67;;
577;SDS011;275;48.492;9.214;2023-04-19T01:49:26;17.35;;;15.90;;
577;SDS011;275;48.492;9.214;2023-04-19T01:51:53;19.40;;;17.80;;
577;SDS011;275;48.492;9.214;2023-04-19T01:54:19;18.55;;;17.05;;
577;SDS011;275;48.492;9.214;2023-04-19T01:56:48;19.95;;;18.15;;
577;SDS011;275;48.492;9.214;2023-04-19T01:59:14;18.70;;;17.10;;
577;SDS011;275;48.492;9.214;2023-04-19T02:01:41;19.63;;;17.83;;
577;SDS011;275;48.492;9.214;2023-04-19T02:04:08;18.13;;;16.67;;
577;SDS011;275;48.492;9.214;2023-04-19T02:06:35;19.52;;;17.95;;
577;SDS011;275;48.492;9.214;2023-04-19T02:09:02;19.85;;;18.25;;
577;SDS011;275;48.492;9.214;2023-04-19T02:11:29;19.05;;;17.35;;
577;SDS011;275;48.492;9.214;2023-04-19T02:13:57;18.55;;;16.85;;
577;SDS011;275;48.492;9.214;2023-04-19T02:16:24;19.98;;;18.27;;
577;SDS011;275;48.492;9.214;2023-04-19T02:18:51;18.92;;;17.33;;
577;SDS011;275;48.492;9.214;2023-04-19T02:21:17;20.23;;;18.60;;
577;SDS011;275;48.492;9.214;2023-04-19T02:23:44;18.75;;;17.15;;
577;SDS011;275;48.492;9.214;2023-04-19T02:26:11;18.77;;;17.23;;
577;SDS011;275;48.492;9.214;2023-04-19T02:28:38;19.85;;;18.15;;
577;SDS011;275;48.492;9.214;2023-04-19T02:33:35;20.85;;;19.08;;
577;SDS011;275;48.492;9.214;2023-04-19T02:36:02;20.15;;;18.45;;
577;SDS011;275;48.492;9.214;2023-04-19T02:38:29;18.60;;;17.00;;
577;SDS011;275;48.492;9.214;2023-04-19T02:40:56;20.63;;;18.88;;
577;SDS011;275;48.492;9.214;2023-04-19T02:43:24;21.73;;;19.77;;
577;SDS011;275;48.492;9.214;2023-04-19T02:45:51;19.27;;;17.55;;
577;SDS011;275;48.492;9.214;2023-04-19T02:48:18;19.67;;;17.92;;
577;SDS011;275;48.492;9.214;2023-04-19T02:50:46;20.60;;;18.85;;
577;SDS011;275;48.492;9.214;2023-04-19T02:53:13;20.38;;;18.58;;
577;SDS011;275;48.492;9.214;2023-04-19T02:55:40;20.63;;;18.88;;
577;SDS011;275;48.492;9.214;2023-04-19T02:58:07;20.00;;;18.30;;
577;SDS011;275;48.492;9.214;2023-04-19T03:00:33;21.02;;;19.17;;
577;SDS011;275;48.492;9.214;2023-04-19T03:03:00;20.75;;;18.95;;
577;SDS011;275;48.492;9.214;2023-04-19T03:05:28;20.25;;;18.65;;
577;SDS011;275;48.492;9.214;2023-04-19T03:07:56;22.05;;;20.15;;
577;SDS011;275;48.492;9.214;2023-04-19T03:10:23;20.30;;;18.45;;
577;SDS011;275;48.492;9.214;2023-04-19T03:12:50;21.65;;;19.85;;
577;SDS011;275;48.492;9.214;2023-04-19T03:15:17;21.17;;;19.33;;
577;SDS011;275;48.492;9.214;2023-04-19T03:17:44;21.10;;;18.98;;
577;SDS011;275;48.492;9.214;2023-04-19T03:20:11;19.70;;;17.90;;
577;SDS011;275;48.492;9.214;2023-04-19T03:22:38;21.80;;;19.95;;
577;SDS011;275;48.492;9.214;2023-04-19T03:25:06;21.15;;;19.35;;
577;SDS011;275;48.492;9.214;2023-04-19T03:27:36;21.55;;;19.75;;
577;SDS011;275;48.492;9.214;2023-04-19T03:30:03;20.80;;;19.10;;
577;SDS011;275;48.492;9.214;2023-04-19T03:32:31;21.30;;;19.50;;
577;SDS011;275;48.492;9.214;2023-04-19T03:34:58;21.38;;;19.48;;
577;SDS011;275;48.492;9.214;2023-04-19T03:37:24;21.40;;;19.35;;
577;SDS011;275;48.492;9.214;2023-04-19T03:39:51;20.58;;;18.67;;
577;SDS011;275;48.492;9.214;2023-04-19T03:42:19;20.35;;;18.52;;
577;SDS011;275;48.492;9.214;2023-04-19T03:44:46;22.20;;;20.30;;
577;SDS011;275;48.492;9.214;2023-04-19T03:47:13;21.73;;;19.92;;
577;SDS011;275;48.492;9.214;2023-04-19T03:49:40;21.70;;;19.80;;
577;SDS011;275;48.492;9.214;2023-04-19T03:52:06;21.30;;;19.55;;
577;SDS011;275;48.492;9.214;2023-04-19T03:54:33;23.05;;;21.05;;
577;SDS011;275;48.492;9.214;2023-04-19T03:57:00;23.08;;;20.88;;
577;SDS011;275;48.492;9.214;2023-04-19T03:59:28;21.73;;;19.73;;
577;SDS011;275;48.492;9.214;2023-04-19T04:01:55;22.13;;;20.02;;
577;SDS011;275;48.492;9.214;2023-04-19T04:04:22;23.13;;;21.27;;
577;SDS011;275;48.492;9.214;2023-04-19T04:06:49;22.05;;;20.05;;
577;SDS011;275;48.492;9.214;2023-04-19T04:09:15;21.90;;;20.10;;
577;SDS011;275;48.492;9.214;2023-04-19T04:11:42;22.17;;;20.27;;
577;SDS011;275;48.492;9.214;2023-04-19T04:14:09;23.02;;;21.13;;
577;SDS011;275;48.492;9.214;2023-04-19T04:16:37;24.25;;;21.88;;
577;SDS011;275;48.492;9.214;2023-04-19T04:19:04;23.17;;;21.17;;
577;SDS011;275;48.492;9.214;2023-04-19T04:21:31;22.70;;;20.67;;
577;SDS011;275;48.492;9.214;2023-04-19T04:23:58;23.08;;;21.10;;
577;SDS011;275;48.492;9.214;2023-04-19T04:26:26;23.50;;;21.50;;
577;SDS011;275;48.492;9.214;2023-04-19T04:28:54;24.23;;;22.15;;
577;SDS011;275;48.492;9.214;2023-04-19T04:31:21;24.63;;;22.38;;
577;SDS011;275;48.492;9.214;2023-04-19T04:33:49;22.20;;;20.23;;
577;SDS011;275;48.492;9.214;2023-04-19T04:36:17;22.63;;;20.73;;
577;SDS011;275;48.492;9.214;2023-04-19T04:38:44;24.95;;;22.85;;
577;SDS011;275;48.492;9.214;2023-04-19T04:41:11;21.85;;;20.05;;
577;SDS011;275;48.492;9.214;2023-04-19T04:43:38;24.60;;;22.42;;
577;SDS011;275;48.492;9.214;2023-04-19T04:46:05;25.02;;;22.83;;
577;SDS011;275;48.492;9.214;2023-04-19T04:48:32;24.30;;;22.20;;
577;SDS011;275;48.492;9.214;2023-04-19T04:51:00;25.40;;;23.20;;
577;SDS011;275;48.492;9.214;2023-04-19T04:53:26;23.90;;;21.75;;
577;SDS011;275;48.492;9.214;2023-04-19T04:55:53;22.92;;;21.05;;
577;SDS011;275;48.492;9.214;2023-04-19T04:58:20;23.42;;;21.40;;
577;SDS011;275;48.492;9.214;2023-04-19T05:00:47;24.52;;;22.42;;
577;SDS011;275;48.492;9.214;2023-04-19T05:03:14;23.85;;;21.73;;
577;SDS011;275;48.492;9.214;2023-04-19T05:05:41;25.17;;;23.15;;
577;SDS011;275;48.492;9.214;2023-04-19T05:08:09;25.23;;;23.13;;
577;SDS011;275;48.492;9.214;2023-04-19T05:10:36;23.35;;;21.35;;
577;SDS011;275;48.492;9.214;2023-04-19T05:13:03;25.38;;;23.20;;
577;SDS011;275;48.492;9.214;2023-04-19T05:15:29;24.42;;;22.52;;
577;SDS011;275;48.492;9.214;2023-04-19T05:17:56;25.02;;;22.88;;
577;SDS011;275;48.492;9.214;2023-04-19T05:20:23;25.27;;;23.10;;
577;SDS011;275;48.492;9.214;2023-04-19T05:22:55;24.70;;;22.60;;
577;SDS011;275;48.492;9.214;2023-04-19T05:25:23;25.55;;;23.20;;
577;SDS011;275;48.492;9.214;2023-04-19T05:27:50;24.17;;;22.13;;
577;SDS011;275;48.492;9.214;2023-04-19T05:30:17;25.00;;;22.73;;
577;SDS011;275;48.492;9.214;2023-04-19T05:32:44;25.38;;;23.23;;
577;SDS011;275;48.492;9.214;2023-04-19T05:35:11;24.42;;;22.42;;
577;SDS011;275;48.492;9.214;2023-04-19T05:37:38;24.38;;;22.05;;
577;SDS011;275;48.492;9.214;2023-04-19T05:40:06;24.77;;;22.58;;
577;SDS011;275;48.492;9.214;2023-04-19T05:42:36;25.20;;;23.10;;
577;SDS011;275;48.492;9.214;2023-04-19T05:45:04;24.17;;;22.17;;
577;SDS011;275;48.492;9.214;2023-04-19T05:47:31;24.83;;;22.48;;
577;SDS011;275;48.492;9.214;2023-04-19T05:49:58;24.85;;;22.70;;
577;SDS011;275;48.492;9.214;2023-04-19T05:52:25;23.40;;;21.40;;
577;SDS011;275;48.492;9.214;2023-04-19T05:54:51;25.65;;;23.48;;
577;SDS011;275;48.492;9.214;2023-04-19T05:57:18;24.83;;;22.67;;
577;SDS011;275;48.492;9.214;2023-04-19T05:59:46;24.23;;;22.25;;
577;SDS011;275;48.492;9.214;2023-04-19T06:02:13;23.48;;;21.50;;
577;SDS011;275;48.492;9.214;2023-04-19T06:04:40;24.10;;;22.10;;
577;SDS011;275;48.492;9.214;2023-04-19T06:07:07;23.98;;;21.83;;
577;SDS011;275;48.492;9.214;2023-04-19T06:09:34;26.73;;;24.38;;
577;SDS011;275;48.492;9.214;2023-04-19T06:12:00;24.30;;;22.05;;
577;SDS011;275;48.492;9.214;2023-04-19T06:14:27;24.20;;;21.90;;
577;SDS011;275;48.492;9.214;2023-04-19T06:16:55;24.75;;;22.70;;
577;SDS011;275;48.492;9.214;2023-04-19T06:19:22;23.30;;;21.20;;
577;SDS011;275;48.492;9.214;2023-04-19T06:21:49;23.02;;;21.02;;
577;SDS011;275;48.492;9.214;2023-04-19T06:24:16;24.10;;;22.10;;
577;SDS011;275;48.492;9.214;2023-04-19T06:26:42;24.95;;;22.63;;
577;SDS011;275;48.492;9.214;2023-04-19T06:29:11;23.50;;;21.48;;
577;SDS011;275;48.492;9.214;2023-04-19T06:31:38;23.95;;;21.75;;
577;SDS011;275;48.492;9.214;2023-04-19T06:34:06;24.40;;;22.25;;
577;SDS011;275;48.492;9.214;2023-04-19T06:36:34;24.38;;;22.02;;
577;SDS011;275;48.492;9.214;2023-04-19T06:39:01;23.00;;;21.00;;
577;SDS011;275;48.492;9.214;2023-04-19T06:41:28;25.80;;;23.50;;
577;SDS011;275;48.492;9.214;2023-04-19T06:43:55;36.65;;;32.75;;
577;SDS011;275;48.492;9.214;2023-04-19T06:46:21;24.40;;;22.30;;
577;SDS011;275;48.492;9.214;2023-04-19T06:48:48;25.95;;;23.80;;
577;SDS011;275;48.492;9.214;2023-04-19T06:51:16;25.08;;;22.98;;
577;SDS011;275;48.492;9.214;2023-04-19T06:53:43;24.80;;;22.05;;
577;SDS011;275;48.492;9.214;2023-04-19T06:56:10;23.30;;;21.30;;
577;SDS011;275;48.492;9.214;2023-04-19T06:58:37;23.42;;;21.33;;
577;SDS011;275;48.492;9.214;2023-04-19T07:01:04;25.55;;;23.25;;
577;SDS011;275;48.492;9.214;2023-04-19T07:03:31;24.73;;;22.60;;
577;SDS011;275;48.492;9.214;2023-04-19T07:05:58;25.10;;;22.90;;
577;SDS011;275;48.492;9.214;2023-04-19T07:08:27;24.60;;;22.40;;
577;SDS011;275;48.492;9.214;2023-04-19T07:10:54;23.73;;;21.73;;
577;SDS011;275;48.492;9.214;2023-04-19T07:13:21;24.08;;;22.05;;
577;SDS011;275;48.492;9.214;2023-04-19T07:15:48;24.67;;;22.52;;
577;SDS011;275;48.492;9.214;2023-04-19T07:18:14;25.30;;;23.20;;
577;SDS011;275;48.492;9.214;2023-04-19T07:20:41;25.05;;;22.58;;
577;SDS011;275;48.492;9.214;2023-04-19T07:23:12;23.30;;;21.30;;
577;SDS011;275;48.492;9.214;2023-04-19T07:25:41;23.77;;;21.67;;
577;SDS011;275;48.492;9.214;2023-04-19T07:28:08;25.38;;;23.08;;
577;SDS011;275;48.492;9.214;2023-04-19T07:30:34;24.92;;;22.92;;
577;SDS011;275;48.492;9.214;2023-04-19T07:33:01;25.98;;;23.58;;
577;SDS011;275;48.492;9.214;2023-04-19T07:35:32;24.05;;;21.88;;
577;SDS011;275;48.492;9.214;2023-04-19T07:37:59;25.92;;;23.73;;
577;SDS011;275;48.492;9.214;2023-04-19T07:40:26;25.02;;;23.02;;
577;SDS011;275;48.492;9.214;2023-04-19T07:42:55;25.98;;;23.75;;
577;SDS011;275;48.492;9.214;2023-04-19T07:45:22;24.25;;;22.08;;
577;SDS011;275;48.492;9.214;2023-04-19T07:47:49;25.13;;;22.83;;
577;SDS011;275;48.492;9.214;2023-04-19T07:50:16;23.92;;;21.70;;
577;SDS011;275;48.492;9.214;2023-04-19T07:52:43;24.38;;;22.13;;
577;SDS011;275;48.492;9.214;2023-04-19T07:55:09;23.63;;;21.55;;
577;SDS011;275;48.492;9.214;2023-04-19T07:57:36;25.75;;;23.35;;
577;SDS011;275;48.492;9.214;2023-04-19T08:00:05;22.02;;;20.02;;
577;SDS011;275;48.492;9.214;2023-04-19T08:02:34;22.77;;;20.85;;
577;SDS011;275;48.492;9.214;2023-04-19T08:05:01;23.58;;;21.52;;
577;SDS011;275;48.492;9.214;2023-04-19T08:07:29;22.40;;;20.30;;
577;SDS011;275;48.492;9.214;2023-04-19T08:09:56;22.48;;;20.35;;
577;SDS011;275;48.492;9.214;2023-04-19T08:12:22;22.35;;;20.42;;
577;SDS011;275;48.492;9.214;2023-04-19T08:14:49;21.67;;;19.77;;
577;SDS011;275;48.492;9.214;2023-04-19T08:17:17;20.83;;;18.92;;
577;SDS011;275;48.492;9.214;2023-04-19T08:19:45;21.27;;;19.48;;
577;SDS011;275;48.492;9.214;2023-04-19T08:22:14;19.88;;;18.17;;
577;SDS011;275;48.492;9.214;2023-04-19T08:24:41;19.30;;;17.70;;
577;SDS011;275;48.492;9.214;2023-04-19T08:27:08;18.98;;;17.33;;
577;SDS011;275;48.492;9.214;2023-04-19T08:29:35;20.58;;;18.77;;
577;SDS011;275;48.492;9.214;2023-04-19T08:32:03;20.50;;;18.70;;
577;SDS011;275;48.492;9.214;2023-04-19T08:34:33;18.10;;;16.40;;
577;SDS011;275;48.492;9.214;2023-04-19T08:37:00;18.35;;;16.77;;
577;SDS011;275;48.492;9.214;2023-04-19T08:39:27;18.65;;;17.02;;
577;SDS011;275;48.492;9.214;2023-04-19T08:41:54;16.70;;;15.07;;
577;SDS011;275;48.492;9.214;2023-04-19T08:44:22;17.90;;;16.30;;
577;SDS011;275;48.492;9.214;2023-04-19T08:46:50;17.95;;;16.35;;
577;SDS011;275;48.492;9.214;2023-04-19T08:49:17;17.60;;;15.90;;
577;SDS011;275;48.492;9.214;2023-04-19T08:51:46;15.80;;;14.30;;
577;SDS011;275;48.492;9.214;2023-04-19T08:54:14;15.00;;;13.53;;
577;SDS011;275;48.492;9.214;2023-04-19T08:56:41;16.67;;;14.97;;
577;SDS011;275;48.492;9.214;2023-04-19T08:59:08;17.30;;;15.63;;
577;SDS011;275;48.492;9.214;2023-04-19T09:01:35;16.27;;;14.47;;
577;SDS011;275;48.492;9.214;2023-04-19T09:04:02;16.73;;;15.03;;
577;SDS011;275;48.492;9.214;2023-04-19T09:06:33;15.97;;;14.57;;
577;SDS011;275;48.492;9.214;2023-04-19T09:09:13;15.67;;;14.17;;
577;SDS011;275;48.492;9.214;2023-04-19T09:11:41;15.93;;;14.43;;
577;SDS011;275;48.492;9.214;2023-04-19T09:14:08;15.27;;;13.87;;
577;SDS011;275;48.492;9.214;2023-04-19T09:16:36;16.97;;;15.37;;
577;SDS011;275;48.492;9.214;2023-04-19T09:19:04;14.13;;;12.67;;
577;SDS011;275;48.492;9.214;2023-04-19T09:21:33;15.73;;;14.13;;
577;SDS011;275;48.492;9.214;2023-04-19T09:24:00;14.13;;;12.70;;
577;SDS011;275;48.492;9.214;2023-04-19T09:26:28;15.47;;;14.07;;
577;SDS011;275;48.492;9.214;2023-04-19T09:28:56;13.70;;;12.47;;
577;SDS011;275;48.492;9.214;2023-04-19T09:31:23;14.17;;;12.80;;
577;SDS011;275;48.492;9.214;2023-04-19T09:33:52;13.53;;;12.23;;
577;SDS011;275;48.492;9.214;2023-04-19T09:36:26;13.10;;;11.90;;
577;SDS011;275;48.492;9.214;2023-04-19T09:38:55;11.60;;;10.60;;
577;SDS011;275;48.492;9.214;2023-04-19T09:41:22;12.30;;;11.10;;
577;SDS011;275;48.492;9.214;2023-04-19T09:43:50;12.30;;;11.20;;
577;SDS011;275;48.492;9.214;2023-04-19T09:46:28;13.20;;;11.83;;
577;SDS011;275;48.492;9.214;2023-04-19T09:49:08;14.30;;;12.93;;
577;SDS011;275;48.492;9.214;2023-04-19T09:51:41;13.47;;;12.17;;
577;SDS011;275;48.492;9.214;2023-04-19T09:54:09;14.10;;;12.80;;
577;SDS011;275;48.492;9.214;2023-04-19T09:56:37;16.27;;;14.53;;
577;SDS011;275;48.492;9.214;2023-04-19T09:59:06;13.40;;;12.20;;
577;SDS011;275;48.492;9.214;2023-04-19T10:01:36;14.10;;;12.90;;
577;SDS011;275;48.492;9.214;2023-04-19T10:04:05;14.67;;;13.27;;
577;SDS011;275;48.492;9.214;2023-04-19T10:06:33;15.27;;;13.97;;
577;SDS011;275;48.492;9.214;2023-04-19T10:09:01;15.13;;;13.63;;
577;SDS011;275;48.492;9.214;2023-04-19T10:11:30;15.00;;;13.60;;
577;SDS011;275;48.492;9.214;2023-04-19T10:14:00;12.00;;;10.90;;
577;SDS011;275;48.492;9.214;2023-04-19T10:16:32;15.10;;;13.70;;
577;SDS011;275;48.492;9.214;2023-04-19T10:19:00;14.20;;;13.00;;
577;SDS011;275;48.492;9.214;2023-04-19T10:21:28;13.87;;;12.33;;
577;SDS011;275;48.492;9.214;2023-04-19T10:23:57;12.30;;;11.10;;
577;SDS011;275;48.492;9.214;2023-04-19T10:26:25;13.80;;;12.40;;
577;SDS011;275;48.492;9.214;2023-04-19T10:28:53;14.20;;;13.00;;
577;SDS011;275;48.492;9.214;2023-04-19T10:31:21;13.93;;;12.80;;
577;SDS011;275;48.492;9.214;2023-04-19T10:33:53;14.70;;;13.20;;
577;SDS011;275;48.492;9.214;2023-04-19T10:36:21;13.40;;;12.10;;
577;SDS011;275;48.492;9.214;2023-04-19T10:38:52;14.03;;;12.63;;
577;SDS011;275;48.492;9.214;2023-04-19T10:41:20;15.20;;;13.83;;
577;SDS011;275;48.492;9.214;2023-04-19T10:43:48;13.63;;;12.20;;
577;SDS011;275;48.492;9.214;2023-04-19T10:46:35;14.43;;;13.13;;
577;SDS011;275;48.492;9.214;2023-04-19T10:49:05;12.27;;;11.23;;
577;SDS011;275;48.492;9.214;2023-04-19T10:51:34;15.13;;;13.50;;
577;SDS011;275;48.492;9.214;2023-04-19T10:54:02;13.13;;;11.83;;
577;SDS011;275;48.492;9.214;2023-04-19T10:59:27;12.97;;;11.77;;
577;SDS011;275;48.492;9.214;2023-04-19T11:01:55;14.20;;;12.80;;
577;SDS011;275;48.492;9.214;2023-04-19T11:07:28;14.00;;;12.60;;
577;SDS011;275;48.492;9.214;2023-04-19T11:10:03;11.77;;;10.67;;
577;SDS011;275;48.492;9.214;2023-04-19T11:12:30;13.10;;;11.90;;
577;SDS011;275;48.492;9.214;2023-04-19T11:14:58;11.90;;;10.90;;
577;SDS011;275;48.492;9.214;2023-04-19T11:17:27;11.00;;;10.00;;
577;SDS011;275;48.492;9.214;2023-04-19T11:19:56;13.47;;;12.20;;
577;SDS011;275;48.492;9.214;2023-04-19T11:22:28;11.73;;;10.43;;
577;SDS011;275;48.492;9.214;2023-04-19T11:24:56;11.87;;;10.87;;
577;SDS011;275;48.492;9.214;2023-04-19T11:27:29;10.67;;;9.60;;
577;SDS011;275;48.492;9.214;2023-04-19T11:30:00;11.03;;;10.03;;
577;SDS011;275;48.492;9.214;2023-04-19T11:32:29;10.70;;;9.70;;
577;SDS011;275;48.492;9.214;2023-04-19T11:34:56;10.30;;;9.30;;
577;SDS011;275;48.492;9.214;2023-04-19T11:37:23;10.33;;;9.33;;
577;SDS011;275;48.492;9.214;2023-04-19T11:39:51;10.53;;;9.50;;
577;SDS011;275;48.492;9.214;2023-04-19T11:42:18;10.47;;;9.47;;
577;SDS011;275;48.492;9.214;2023-04-19T11:44:49;10.53;;;9.53;;
577;SDS011;275;48.492;9.214;2023-04-19T11:47:16;11.43;;;10.33;;
577;SDS011;275;48.492;9.214;2023-04-19T11:49:44;11.87;;;10.73;;
577;SDS011;275;48.492;9.214;2023-04-19T11:52:11;12.63;;;10.60;;
577;SDS011;275;48.492;9.214;2023-04-19T11:54:45;12.23;;;11.03;;
577;SDS011;275;48.492;9.214;2023-04-19T11:57:13;12.03;;;10.93;;
577;SDS011;275;48.492;9.214;2023-04-19T11:59:41;12.50;;;11.40;;
577;SDS011;275;48.492;9.214;2023-04-19T12:02:29;13.20;;;11.80;;
577;SDS011;275;48.492;9.214;2023-04-19T12:05:05;13.60;;;12.30;;
577;SDS011;275;48.492;9.214;2023-04-19T12:07:33;12.60;;;11.40;;
577;SDS011;275;48.492;9.214;2023-04-19T12:10:06;12.97;;;11.77;;
577;SDS011;275;48.492;9.214;2023-04-19T12:12:36;12.17;;;11.07;;
577;SDS011;275;48.492;9.214;2023-04-19T12:15:04;12.50;;;11.03;;
577;SDS011;275;48.492;9.214;2023-04-19T12:17:31;12.70;;;11.40;;
577;SDS011;275;48.492;9.214;2023-04-19T12:19:58;11.90;;;10.80;;
577;SDS011;275;48.492;9.214;2023-04-19T12:22:25;12.47;;;10.70;;
577;SDS011;275;48.492;9.214;2023-04-19T12:24:52;12.77;;;11.53;;
577;SDS011;275;48.492;9.214;2023-04-19T12:27:19;12.77;;;11.13;;
577;SDS011;275;48.492;9.214;2023-04-19T12:29:48;11.93;;;10.73;;
577;SDS011;275;48.492;9.214;2023-04-19T12:32:14;12.73;;;11.53;;
577;SDS011;275;48.492;9.214;2023-04-19T12:34:41;12.97;;;11.87;;
577;SDS011;275;48.492;9.214;2023-04-19T12:37:08;12.73;;;11.53;;
577;SDS011;275;48.492;9.214;2023-04-19T12:39:36;12.90;;;11.37;;
577;SDS011;275;48.492;9.214;2023-04-19T12:42:03;11.70;;;10.60;;
577;SDS011;275;48.492;9.214;2023-04-19T12:44:31;11.43;;;10.33;;
577;SDS011;275;48.492;9.214;2023-04-19T12:46:59;12.30;;;11.20;;
577;SDS011;275;48.492;9.214;2023-04-19T12:49:26;14.97;;;13.63;;
577;SDS011;275;48.492;9.214;2023-04-19T12:51:53;12.30;;;11.20;;
577;SDS011;275;48.492;9.214;2023-04-19T12:54:20;15.80;;;14.30;;
577;SDS011;275;48.492;9.214;2023-04-19T12:56:47;14.77;;;13.33;;
577;SDS011;275;48.492;9.214;2023-04-19T12:59:13;15.20;;;13.80;;
577;SDS011;275;48.492;9.214;2023-04-19T13:01:40;14.57;;;13.23;;
577;SDS011;275;48.492;9.214;2023-04-19T13:04:08;15.47;;;13.97;;
577;SDS011;275;48.492;9.214;2023-04-19T13:06:36;17.23;;;15.47;;
577;SDS011;275;48.492;9.214;2023-04-19T13:09:04;18.97;;;16.80;;
577;SDS011;275;48.492;9.214;2023-04-19T13:11:31;16.10;;;14.53;;
577;SDS011;275;48.492;9.214;2023-04-19T13:13:58;17.65;;;16.08;;
577;SDS011;275;48.492;9.214;2023-04-19T13:16:24;16.60;;;14.90;;
577;SDS011;275;48.492;9.214;2023-04-19T13:18:51;16.88;;;15.38;;
577;SDS011;275;48.492;9.214;2023-04-19T13:21:20;18.40;;;16.60;;
577;SDS011;275;48.492;9.214;2023-04-19T13:23:48;17.52;;;16.02;;
577;SDS011;275;48.492;9.214;2023-04-19T13:26:15;19.95;;;18.13;;
577;SDS011;275;48.492;9.214;2023-04-19T13:28:42;19.88;;;18.15;;
577;SDS011;275;48.492;9.214;2023-04-19T13:31:08;20.80;;;19.00;;
577;SDS011;275;48.492;9.214;2023-04-19T13:33:35;18.95;;;17.25;;
577;SDS011;275;48.492;9.214;2023-04-19T13:36:02;17.58;;;16.05;;
577;SDS011;275;48.492;9.214;2023-04-19T13:38:31;20.05;;;18.35;;
577;SDS011;275;48.492;9.214;2023-04-19T13:40:58;20.50;;;18.75;;
577;SDS011;275;48.492;9.214;2023-04-19T13:43:25;20.63;;;18.83;;
577;SDS011;275;48.492;9.214;2023-04-19T13:45:52;21.50;;;19.60;;
577;SDS011;275;48.492;9.214;2023-04-19T13:48:19;23.55;;;21.38;;
577;SDS011;275;48.492;9.214;2023-04-19T13:50:46;23.52;;;21.63;;
577;SDS011;275;48.492;9.214;2023-04-19T13:53:12;24.45;;;22.35;;
577;SDS011;275;48.492;9.214;2023-04-19T13:55:40;24.45;;;22.30;;
577;SDS011;275;48.492;9.214;2023-04-19T13:58:07;26.63;;;24.13;;
577;SDS011;275;48.492;9.214;2023-04-19T14:00:34;27.00;;;24.80;;
577;SDS011;275;48.492;9.214;2023-04-19T14:03:01;28.27;;;25.77;;
577;SDS011;275;48.492;9.214;2023-04-19T14:05:28;28.27;;;25.92;;
577;SDS011;275;48.492;9.214;2023-04-19T14:07:55;26.15;;;23.80;;
577;SDS011;275;48.492;9.214;2023-04-19T14:10:22;27.27;;;24.88;;
577;SDS011;275;48.492;9.214;2023-04-19T14:12:50;32.25;;;29.33;;
577;SDS011;275;48.492;9.214;2023-04-19T14:15:17;31.15;;;28.25;;
577;SDS011;275;48.492;9.214;2023-04-19T14:17:44;31.92;;;28.83;;
577;SDS011;275;48.492;9.214;2023-04-19T14:20:11;31.00;;;28.30;;
577;SDS011;275;48.492;9.214;2023-04-19T14:22:38;31.13;;;28.20;;
577;SDS011;275;48.492;9.214;2023-04-19T14:25:05;31.17;;;28.27;;
577;SDS011;275;48.492;9.214;2023-04-19T14:27:32;33.30;;;30.45;;
577;SDS011;275;48.492;9.214;2023-04-19T14:30:00;32.60;;;29.70;;
577;SDS011;275;48.492;9.214;2023-04-19T14:32:27;31.08;;;28.30;;
577;SDS011;275;48.492;9.214;2023-04-19T14:34:54;31.85;;;28.95;;
577;SDS011;275;48.492;9.214;2023-04-19T14:37:21;31.83;;;29.02;;
577;SDS011;275;48.492;9.214;2023-04-19T14:39:48;31.73;;;29.02;;
577;SDS011;275;48.492;9.214;2023-04-19T14:42:15;31.15;;;28.40;;
577;SDS011;275;48.492;9.214;2023-04-19T14:44:42;31.05;;;28.25;;
577;SDS011;275;48.492;9.214;2023-04-19T14:47:11;29.98;;;27.27;;
577;SDS011;275;48.492;9.214;2023-04-19T14:49:38;28.10;;;25.50;;
577;SDS011;275;48.492;9.214;2023-04-19T14:52:05;26.38;;;24.00;;
577;SDS011;275;48.492;9.214;2023-04-19T14:54:32;23.23;;;21.02;;
577;SDS011;275;48.492;9.214;2023-04-19T14:56:59;22.13;;;20.23;;
577;SDS011;275;48.492;9.214;2023-04-19T14:59:26;22.23;;;20.35;;
577;SDS011;275;48.492;9.214;2023-04-19T15:01:53;23.27;;;21.20;;
577;SDS011;275;48.492;9.214;2023-04-19T15:04:21;22.25;;;20.15;;
577;SDS011;275;48.492;9.214;2023-04-19T15:06:48;24.50;;;22.27;;
577;SDS011;275;48.492;9.214;2023-04-19T15:09:15;23.80;;;21.73;;
577;SDS011;275;48.492;9.214;2023-04-19T15:11:41;25.55;;;23.15;;
577;SDS011;275;48.492;9.214;2023-04-19T15:14:08;22.92;;;20.92;;
577;SDS011;275;48.492;9.214;2023-04-19T15:16:35;23.52;;;21.40;;
577;SDS011;275;48.492;9.214;2023-04-19T15:19:02;23.60;;;21.50;;
577;SDS011;275;48.492;9.214;2023-04-19T15:21:32;22.30;;;20.25;;
577;SDS011;275;48.492;9.214;2023-04-19T15:23:59;19.55;;;17.95;;
577;SDS011;275;48.492;9.214;2023-04-19T15:26:26;18.63;;;16.85;;